This is the latest recevied weather packets stored in our database for station/object JS2WAD-13. If no packets are shown the sender has not sent any weather packets the latest 10 day(s).
| Time | Temp. | Humidity | Pressure | Rain* | Wind** | Luminosity | Snow |
|---|---|---|---|---|---|---|---|
| 1778041581 | 18.33° C | 78% | 910.7 hPa | 0 mm | - | 62 W/m² | - |
| 1778041281 | 18.33° C | 79% | 910.6 hPa | 0 mm | - | 67 W/m² | - |
| 1778040981 | 18.33° C | 78% | 910.7 hPa | 0 mm | - | 69 W/m² | - |
| 1778040681 | 18.33° C | 78% | 910.8 hPa | 0 mm | - | 65 W/m² | - |
| 1778040381 | 18.33° C | 79% | 910.8 hPa | 0 mm | - | 67 W/m² | - |
| 1778040081 | 18.33° C | 79% | 910.8 hPa | 0 mm | - | 72 W/m² | - |
| 1778039781 | 18.33° C | 79% | 910.8 hPa | 0 mm | - | 69 W/m² | - |
| 1778039481 | 17.78° C | 80% | 911 hPa | 0 mm | - | 67 W/m² | - |
| 1778039181 | 17.78° C | 81% | 911.2 hPa | 0 mm | - | 46 W/m² | - |
| 1778038881 | 18.33° C | 86% | 911.3 hPa | 0 mm | - | 47 W/m² | - |
| 1778038581 | 17.78° C | 87% | 911.2 hPa | 0 mm | - | 58 W/m² | - |
| 1778038281 | 17.78° C | 82% | 911.4 hPa | 0 mm | - | 58 W/m² | - |
| 1778037981 | 17.78° C | 86% | 911.3 hPa | 0 mm | - | 60 W/m² | - |
| 1778037681 | 17.78° C | 86% | 911.3 hPa | 0 mm | - | 70 W/m² | - |
| 1778037381 | 17.78° C | 85% | 911.5 hPa | 0 mm | - | 63 W/m² | - |
| 1778037081 | 17.78° C | 87% | 911.5 hPa | 0 mm | - | 58 W/m² | - |
| 1778036781 | 17.78° C | 85% | 911.6 hPa | 0 mm | - | 56 W/m² | - |
| 1778036481 | 17.78° C | 85% | 911.5 hPa | 0 mm | - | 84 W/m² | - |
| 1778036181 | 17.78° C | 86% | 911.6 hPa | 0 mm | - | 79 W/m² | - |
| 1778035881 | 17.78° C | 85% | 911.6 hPa | 0 mm | - | 86 W/m² | - |
| 1778035581 | 17.22° C | 84% | 911.8 hPa | 0 mm | - | 65 W/m² | - |
| 1778035281 | 17.78° C | 86% | 911.7 hPa | 0 mm | - | 102 W/m² | - |
| 1778034981 | 17.78° C | 87% | 911.7 hPa | 0 mm | - | 84 W/m² | - |
| 1778034681 | 17.78° C | 87% | 911.8 hPa | 0 mm | - | 86 W/m² | - |
| 1778034381 | 17.78° C | 86% | 911.8 hPa | 0 mm | - | 74 W/m² | - |
* Rain latest hour (hover to see other rain measurements)
** Current wind speed in m/s (hover to see current wind gust speed)